DLH241 EGLL-EDDF
Flight info
| Callsign | DLH241 |
|---|---|
| Flight time | 1h 23m |
| Altitude | 35000 |
| Route | BPK Q295 MATCH DCT REDFA DCT TACHA DCT NOLRU DCT DIXAT DIXAT1A |
| Aircraft | A20N/M-SDE2E3FGHIRWXY/LB1 |
Departure
| Time | 2026-05-05 12:19 |
|---|---|
| Airport | London Heathrow Airport (EGLL) |
Arrival
| Time | 2026-05-05 13:43 |
|---|---|
| Airport | Frankfurt Main Airport (EDDF) |
| Time | Latitude | Longitude | Altitude | Speed | Heading |
|---|---|---|---|---|---|
| 2026-05-05 11:44 | 51.46819 | -0.45046 | 85 ft | 0 kts | 358° |
| 2026-05-05 12:03 | 51.46811 | -0.45046 | 86 ft | 1 kts | 358° |
| 2026-05-05 12:03 | 51.46803 | -0.45046 | 85 ft | 1 kts | 356° |
| 2026-05-05 12:03 | 51.46795 | -0.45044 | 85 ft | 1 kts | 350° |
| 2026-05-05 12:03 | 51.46787 | -0.45042 | 85 ft | 1 kts | 344° |
| 2026-05-05 12:04 | 51.46780 | -0.45039 | 85 ft | 1 kts | 337° |
| 2026-05-05 12:04 | 51.46773 | -0.45034 | 86 ft | 1 kts | 331° |
| 2026-05-05 12:04 | 51.46766 | -0.45028 | 87 ft | 1 kts | 323° |
| 2026-05-05 12:04 | 51.46760 | -0.45020 | 89 ft | 1 kts | 310° |
| 2026-05-05 12:05 | 51.46755 | -0.45010 | 88 ft | 1 kts | 291° |
| 2026-05-05 12:05 | 51.46753 | -0.45001 | 87 ft | 0 kts | 270° |
| 2026-05-05 12:07 | 51.46753 | -0.45012 | 87 ft | 4 kts | 270° |
| 2026-05-05 12:08 | 51.46753 | -0.45099 | 85 ft | 11 kts | 269° |
| 2026-05-05 12:08 | 51.46752 | -0.45239 | 85 ft | 14 kts | 270° |
| 2026-05-05 12:08 | 51.46751 | -0.45416 | 84 ft | 17 kts | 269° |
| 2026-05-05 12:08 | 51.46749 | -0.45616 | 84 ft | 18 kts | 269° |
| 2026-05-05 12:09 | 51.46749 | -0.45803 | 84 ft | 18 kts | 270° |
| 2026-05-05 12:09 | 51.46748 | -0.45991 | 88 ft | 16 kts | 270° |
| 2026-05-05 12:09 | 51.46749 | -0.46159 | 84 ft | 13 kts | 270° |
| 2026-05-05 12:09 | 51.46748 | -0.46323 | 85 ft | 15 kts | 269° |
| 2026-05-05 12:10 | 51.46746 | -0.46511 | 88 ft | 17 kts | 270° |
| 2026-05-05 12:10 | 51.46747 | -0.46716 | 88 ft | 17 kts | 270° |
| 2026-05-05 12:10 | 51.46748 | -0.46919 | 86 ft | 19 kts | 270° |
| 2026-05-05 12:10 | 51.46748 | -0.47111 | 84 ft | 16 kts | 270° |
| 2026-05-05 12:11 | 51.46747 | -0.47306 | 86 ft | 19 kts | 269° |
| 2026-05-05 12:11 | 51.46747 | -0.47468 | 87 ft | 11 kts | 270° |
| 2026-05-05 12:11 | 51.46746 | -0.47608 | 88 ft | 14 kts | 270° |
| 2026-05-05 12:11 | 51.46745 | -0.47778 | 84 ft | 16 kts | 269° |
| 2026-05-05 12:12 | 51.46745 | -0.47798 | 84 ft | 0 kts | 269° |
| 2026-05-05 12:13 | 51.46745 | -0.47809 | 84 ft | 4 kts | 269° |
| 2026-05-05 12:13 | 51.46744 | -0.47886 | 84 ft | 10 kts | 269° |
| 2026-05-05 12:13 | 51.46743 | -0.48007 | 84 ft | 12 kts | 270° |
| 2026-05-05 12:13 | 51.46743 | -0.48109 | 84 ft | 0 kts | 270° |
| 2026-05-05 12:14 | 51.46743 | -0.48113 | 84 ft | 2 kts | 270° |
| 2026-05-05 12:14 | 51.46743 | -0.48202 | 85 ft | 12 kts | 269° |
| 2026-05-05 12:15 | 51.46742 | -0.48349 | 85 ft | 13 kts | 270° |
| 2026-05-05 12:15 | 51.46724 | -0.48461 | 86 ft | 10 kts | 222° |
| 2026-05-05 12:15 | 51.46662 | -0.48469 | 87 ft | 9 kts | 178° |
| 2026-05-05 12:15 | 51.46610 | -0.48469 | 89 ft | 5 kts | 180° |
| 2026-05-05 12:16 | 51.46598 | -0.48469 | 89 ft | 1 kts | 180° |
| 2026-05-05 12:16 | 51.46562 | -0.48470 | 89 ft | 10 kts | 181° |
| 2026-05-05 12:16 | 51.46488 | -0.48423 | 88 ft | 14 kts | 117° |
| 2026-05-05 12:16 | 51.46480 | -0.48257 | 87 ft | 16 kts | 89° |
| 2026-05-05 12:17 | 51.46482 | -0.48123 | 84 ft | 0 kts | 88° |
| 2026-05-05 12:18 | 51.46483 | -0.47935 | 83 ft | 42 kts | 89° |
| 2026-05-05 12:18 | 51.46494 | -0.47092 | 84 ft | 106 kts | 89° |
| 2026-05-05 12:18 | 51.46498 | -0.45631 | 87 ft | 154 kts | 88° |
| 2026-05-05 12:19 | 51.46494 | -0.43847 | 539 ft | 157 kts | 86° |
| 2026-05-05 12:19 | 51.46506 | -0.42121 | 1373 ft | 153 kts | 83° |
| 2026-05-05 12:19 | 51.46844 | -0.40551 | 2141 ft | 153 kts | 57° |
| 2026-05-05 12:19 | 51.47501 | -0.39090 | 2744 ft | 171 kts | 50° |
| 2026-05-05 12:20 | 51.48299 | -0.37538 | 3353 ft | 190 kts | 49° |
| 2026-05-05 12:20 | 51.49195 | -0.35841 | 3917 ft | 209 kts | 49° |
| 2026-05-05 12:20 | 51.50183 | -0.33976 | 4488 ft | 229 kts | 50° |
| 2026-05-05 12:20 | 51.51212 | -0.31980 | 5371 ft | 234 kts | 52° |
| 2026-05-05 12:21 | 51.52122 | -0.29750 | 6129 ft | 243 kts | 62° |
| 2026-05-05 12:21 | 51.52817 | -0.27215 | 6376 ft | 252 kts | 68° |
| 2026-05-05 12:21 | 51.53452 | -0.24542 | 6042 ft | 263 kts | 70° |
| 2026-05-05 12:21 | 51.54074 | -0.21746 | 6004 ft | 266 kts | 70° |
| 2026-05-05 12:22 | 51.54806 | -0.19087 | 6001 ft | 264 kts | 54° |
| 2026-05-05 12:22 | 51.56183 | -0.17152 | 6002 ft | 265 kts | 26° |
| 2026-05-05 12:22 | 51.57967 | -0.16454 | 6027 ft | 268 kts | 3° |
| 2026-05-05 12:22 | 51.59831 | -0.16382 | 6017 ft | 267 kts | 7° |
| 2026-05-05 12:23 | 51.61674 | -0.16009 | 6026 ft | 266 kts | 8° |
| 2026-05-05 12:23 | 51.63516 | -0.15602 | 6027 ft | 267 kts | 9° |
| 2026-05-05 12:23 | 51.65351 | -0.15158 | 6027 ft | 267 kts | 12° |
| 2026-05-05 12:23 | 51.67143 | -0.14360 | 6030 ft | 268 kts | 17° |
| 2026-05-05 12:24 | 51.68925 | -0.13512 | 6031 ft | 266 kts | 17° |
| 2026-05-05 12:24 | 51.70702 | -0.12678 | 6031 ft | 266 kts | 17° |
| 2026-05-05 12:24 | 51.72485 | -0.11845 | 6104 ft | 269 kts | 18° |
| 2026-05-05 12:24 | 51.74117 | -0.10398 | 6585 ft | 272 kts | 44° |
| 2026-05-05 12:25 | 51.75128 | -0.07844 | 7616 ft | 273 kts | 71° |
| 2026-05-05 12:25 | 51.75501 | -0.04810 | 8557 ft | 279 kts | 81° |
| 2026-05-05 12:25 | 51.75765 | -0.01675 | 9497 ft | 285 kts | 82° |
| 2026-05-05 12:25 | 51.76018 | 0.01531 | 10390 ft | 290 kts | 82° |
| 2026-05-05 12:26 | 51.76275 | 0.04782 | 11327 ft | 293 kts | 82° |
| 2026-05-05 12:26 | 51.76542 | 0.08089 | 12063 ft | 305 kts | 82° |
| 2026-05-05 12:26 | 51.76830 | 0.11609 | 12392 ft | 328 kts | 82° |
| 2026-05-05 12:26 | 51.77142 | 0.15381 | 12786 ft | 347 kts | 82° |
| 2026-05-05 12:27 | 51.77463 | 0.19277 | 13615 ft | 351 kts | 82° |
| 2026-05-05 12:27 | 51.77781 | 0.23210 | 14385 ft | 356 kts | 82° |
| 2026-05-05 12:27 | 51.78251 | 0.27149 | 15096 ft | 359 kts | 75° |
| 2026-05-05 12:27 | 51.78889 | 0.31074 | 15850 ft | 364 kts | 75° |
| 2026-05-05 12:28 | 51.79526 | 0.35050 | 16588 ft | 368 kts | 76° |
| 2026-05-05 12:28 | 51.80169 | 0.39080 | 17294 ft | 373 kts | 76° |
| 2026-05-05 12:28 | 51.80819 | 0.43161 | 18014 ft | 377 kts | 76° |
| 2026-05-05 12:28 | 51.81474 | 0.47285 | 18668 ft | 381 kts | 76° |
| 2026-05-05 12:29 | 51.82134 | 0.51453 | 19287 ft | 385 kts | 76° |
| 2026-05-05 12:29 | 51.82799 | 0.55665 | 19883 ft | 389 kts | 76° |
| 2026-05-05 12:29 | 51.83471 | 0.59924 | 20513 ft | 393 kts | 76° |
| 2026-05-05 12:29 | 51.84138 | 0.64169 | 21122 ft | 396 kts | 77° |
| 2026-05-05 12:30 | 51.84820 | 0.68517 | 21716 ft | 400 kts | 77° |
| 2026-05-05 12:30 | 51.85504 | 0.72900 | 22336 ft | 404 kts | 77° |
| 2026-05-05 12:30 | 51.86194 | 0.77329 | 22932 ft | 408 kts | 77° |
| 2026-05-05 12:30 | 51.86889 | 0.81806 | 23522 ft | 411 kts | 77° |
| 2026-05-05 12:31 | 51.87589 | 0.86321 | 24030 ft | 415 kts | 77° |
| 2026-05-05 12:31 | 51.88291 | 0.90866 | 24519 ft | 418 kts | 77° |
| 2026-05-05 12:31 | 51.88997 | 0.95446 | 24997 ft | 421 kts | 77° |
| 2026-05-05 12:31 | 51.89706 | 1.00062 | 25457 ft | 425 kts | 77° |
| 2026-05-05 12:32 | 51.90420 | 1.04726 | 25904 ft | 428 kts | 78° |
| 2026-05-05 12:32 | 51.91140 | 1.09436 | 26330 ft | 432 kts | 78° |
| 2026-05-05 12:32 | 51.91861 | 1.14173 | 26779 ft | 435 kts | 78° |
| 2026-05-05 12:32 | 51.92587 | 1.18953 | 27202 ft | 438 kts | 78° |
| 2026-05-05 12:33 | 51.93314 | 1.23757 | 27609 ft | 442 kts | 78° |
| 2026-05-05 12:33 | 51.94048 | 1.28615 | 28009 ft | 445 kts | 78° |
| 2026-05-05 12:33 | 51.94783 | 1.33503 | 28412 ft | 448 kts | 78° |
| 2026-05-05 12:33 | 51.95521 | 1.38424 | 28779 ft | 451 kts | 79° |
| 2026-05-05 12:34 | 51.96262 | 1.43383 | 29144 ft | 453 kts | 79° |
| 2026-05-05 12:34 | 51.97006 | 1.48374 | 29503 ft | 456 kts | 79° |
| 2026-05-05 12:34 | 51.97741 | 1.53322 | 29846 ft | 459 kts | 79° |
| 2026-05-05 12:34 | 51.98499 | 1.58441 | 30191 ft | 461 kts | 79° |
| 2026-05-05 12:35 | 51.99237 | 1.63444 | 30495 ft | 464 kts | 79° |
| 2026-05-05 12:35 | 51.99988 | 1.68555 | 30803 ft | 467 kts | 79° |
| 2026-05-05 12:35 | 52.00742 | 1.73694 | 31116 ft | 469 kts | 79° |
| 2026-05-05 12:35 | 52.01495 | 1.78843 | 31499 ft | 469 kts | 79° |
| 2026-05-05 12:36 | 52.02245 | 1.83990 | 31889 ft | 469 kts | 78° |
| 2026-05-05 12:36 | 52.02991 | 1.89132 | 32284 ft | 468 kts | 78° |
| 2026-05-05 12:36 | 52.03736 | 1.94284 | 32674 ft | 468 kts | 78° |
| 2026-05-05 12:36 | 52.04479 | 1.99440 | 33065 ft | 468 kts | 78° |
| 2026-05-05 12:37 | 52.05218 | 2.04584 | 33439 ft | 468 kts | 78° |
| 2026-05-05 12:37 | 52.05953 | 2.09725 | 33799 ft | 467 kts | 78° |
| 2026-05-05 12:37 | 52.06686 | 2.14872 | 34140 ft | 467 kts | 78° |
| 2026-05-05 12:37 | 52.07417 | 2.20009 | 34444 ft | 466 kts | 78° |
| 2026-05-05 12:38 | 52.08145 | 2.25148 | 34745 ft | 465 kts | 78° |
| 2026-05-05 12:38 | 52.08869 | 2.30275 | 34933 ft | 465 kts | 78° |
| 2026-05-05 12:38 | 52.10309 | 2.40515 | 34977 ft | 464 kts | 78° |
| 2026-05-05 12:39 | 52.11745 | 2.50726 | 34976 ft | 463 kts | 77° |
| 2026-05-05 12:39 | 52.13622 | 2.60710 | 34976 ft | 464 kts | 73° |
| 2026-05-05 12:40 | 52.15616 | 2.70707 | 34972 ft | 464 kts | 73° |
| 2026-05-05 12:40 | 52.17540 | 2.80749 | 34976 ft | 465 kts | 74° |
| 2026-05-05 12:41 | 52.19437 | 2.90829 | 34977 ft | 465 kts | 74° |
| 2026-05-05 12:41 | 52.21325 | 3.00936 | 34979 ft | 466 kts | 74° |
| 2026-05-05 12:42 | 52.23204 | 3.11047 | 34978 ft | 466 kts | 74° |
| 2026-05-05 12:42 | 52.24644 | 3.21319 | 34970 ft | 463 kts | 89° |
| 2026-05-05 12:43 | 52.24531 | 3.26542 | 34969 ft | 459 kts | 100° |
| 2026-05-05 12:43 | 52.23816 | 3.31594 | 34964 ft | 455 kts | 111° |
| 2026-05-05 12:43 | 52.21910 | 3.39582 | 34960 ft | 455 kts | 114° |
| 2026-05-05 12:44 | 52.19239 | 3.50762 | 34962 ft | 455 kts | 114° |
| 2026-05-05 12:44 | 52.17305 | 3.58816 | 34961 ft | 455 kts | 114° |
| 2026-05-05 12:45 | 52.15004 | 3.68342 | 34958 ft | 455 kts | 114° |
| 2026-05-05 12:45 | 52.12675 | 3.77939 | 34955 ft | 455 kts | 115° |
| 2026-05-05 12:46 | 52.10341 | 3.87512 | 34954 ft | 455 kts | 115° |
| 2026-05-05 12:46 | 52.08001 | 3.97067 | 34946 ft | 455 kts | 115° |
| 2026-05-05 12:47 | 52.05654 | 4.06615 | 34936 ft | 454 kts | 115° |
| 2026-05-05 12:47 | 52.03303 | 4.16139 | 34927 ft | 454 kts | 115° |
| 2026-05-05 12:48 | 52.00948 | 4.25641 | 34920 ft | 453 kts | 116° |
| 2026-05-05 12:48 | 51.98586 | 4.35124 | 34916 ft | 453 kts | 116° |
| 2026-05-05 12:49 | 51.96236 | 4.44520 | 34909 ft | 452 kts | 116° |
| 2026-05-05 12:49 | 51.93863 | 4.53968 | 34907 ft | 452 kts | 116° |
| 2026-05-05 12:50 | 51.91486 | 4.63390 | 34910 ft | 451 kts | 117° |
| 2026-05-05 12:50 | 51.89102 | 4.72796 | 34909 ft | 451 kts | 117° |
| 2026-05-05 12:51 | 51.86714 | 4.82183 | 34923 ft | 451 kts | 117° |
| 2026-05-05 12:51 | 51.84317 | 4.91565 | 34907 ft | 451 kts | 117° |
| 2026-05-05 12:52 | 51.81929 | 5.00869 | 34929 ft | 452 kts | 117° |
| 2026-05-05 12:52 | 51.79514 | 5.10242 | 34924 ft | 452 kts | 117° |
| 2026-05-05 12:53 | 51.77087 | 5.19623 | 34911 ft | 452 kts | 117° |
| 2026-05-05 12:53 | 51.74654 | 5.28988 | 34913 ft | 453 kts | 117° |
| 2026-05-05 12:54 | 51.70982 | 5.43048 | 34911 ft | 453 kts | 117° |
| 2026-05-05 12:55 | 51.68525 | 5.52408 | 34913 ft | 453 kts | 117° |
| 2026-05-05 12:55 | 51.66061 | 5.61758 | 34901 ft | 453 kts | 117° |
| 2026-05-05 12:56 | 51.63582 | 5.71125 | 34909 ft | 453 kts | 118° |
| 2026-05-05 12:56 | 51.61126 | 5.80369 | 34912 ft | 452 kts | 118° |
| 2026-05-05 12:57 | 51.58646 | 5.89666 | 34906 ft | 452 kts | 118° |
| 2026-05-05 12:57 | 51.57404 | 5.94305 | 34740 ft | 452 kts | 118° |
| 2026-05-05 12:57 | 51.56161 | 5.98942 | 34503 ft | 451 kts | 118° |
| 2026-05-05 12:57 | 51.54917 | 6.03574 | 34261 ft | 451 kts | 118° |
| 2026-05-05 12:58 | 51.53672 | 6.08197 | 34020 ft | 451 kts | 118° |
| 2026-05-05 12:58 | 51.52420 | 6.12837 | 33758 ft | 452 kts | 118° |
| 2026-05-05 12:58 | 51.51170 | 6.17466 | 33483 ft | 452 kts | 118° |
| 2026-05-05 12:58 | 51.49916 | 6.22103 | 33204 ft | 453 kts | 118° |
| 2026-05-05 12:59 | 51.48718 | 6.26777 | 32916 ft | 455 kts | 116° |
| 2026-05-05 12:59 | 51.47572 | 6.31509 | 32651 ft | 455 kts | 115° |
| 2026-05-05 12:59 | 51.46433 | 6.36255 | 32383 ft | 455 kts | 115° |
| 2026-05-05 13:00 | 51.44135 | 6.45706 | 31834 ft | 455 kts | 115° |
| 2026-05-05 13:00 | 51.42975 | 6.50421 | 31574 ft | 455 kts | 115° |
| 2026-05-05 13:01 | 51.39465 | 6.64580 | 30806 ft | 456 kts | 115° |
| 2026-05-05 13:01 | 51.38295 | 6.69278 | 30545 ft | 456 kts | 115° |
| 2026-05-05 13:01 | 51.37118 | 6.73997 | 30303 ft | 454 kts | 115° |
| 2026-05-05 13:01 | 51.35950 | 6.78670 | 30052 ft | 452 kts | 115° |
| 2026-05-05 13:02 | 51.34785 | 6.83323 | 29782 ft | 450 kts | 115° |
| 2026-05-05 13:02 | 51.33618 | 6.87972 | 29499 ft | 449 kts | 115° |
| 2026-05-05 13:02 | 51.32456 | 6.92592 | 29217 ft | 447 kts | 115° |
| 2026-05-05 13:02 | 51.31297 | 6.97192 | 28934 ft | 446 kts | 115° |
| 2026-05-05 13:03 | 51.30138 | 7.01782 | 28660 ft | 444 kts | 115° |
| 2026-05-05 13:03 | 51.29000 | 7.06279 | 28386 ft | 442 kts | 115° |
| 2026-05-05 13:03 | 51.27712 | 7.10712 | 28109 ft | 436 kts | 124° |
| 2026-05-05 13:03 | 51.25890 | 7.14521 | 27830 ft | 429 kts | 138° |
| 2026-05-05 13:04 | 51.23600 | 7.17492 | 27561 ft | 421 kts | 151° |
| 2026-05-05 13:04 | 51.21026 | 7.19646 | 27296 ft | 418 kts | 157° |
| 2026-05-05 13:04 | 51.18415 | 7.21694 | 27033 ft | 416 kts | 156° |
| 2026-05-05 13:04 | 51.15830 | 7.23731 | 26770 ft | 414 kts | 156° |
| 2026-05-05 13:05 | 51.13258 | 7.25763 | 26505 ft | 412 kts | 156° |
| 2026-05-05 13:05 | 51.10698 | 7.27791 | 26249 ft | 410 kts | 156° |
| 2026-05-05 13:05 | 51.08162 | 7.29864 | 26000 ft | 408 kts | 155° |
| 2026-05-05 13:05 | 51.05645 | 7.31951 | 25735 ft | 407 kts | 155° |
| 2026-05-05 13:06 | 51.03138 | 7.34032 | 25259 ft | 406 kts | 155° |
| 2026-05-05 13:06 | 51.00639 | 7.36101 | 24731 ft | 404 kts | 155° |
| 2026-05-05 13:06 | 50.98188 | 7.38126 | 24217 ft | 400 kts | 154° |
| 2026-05-05 13:06 | 50.95734 | 7.40146 | 23680 ft | 395 kts | 154° |
| 2026-05-05 13:07 | 50.93311 | 7.42137 | 23141 ft | 390 kts | 154° |
| 2026-05-05 13:07 | 50.90919 | 7.44099 | 22624 ft | 383 kts | 154° |
| 2026-05-05 13:07 | 50.88573 | 7.46021 | 22131 ft | 377 kts | 154° |
| 2026-05-05 13:07 | 50.86257 | 7.47915 | 21623 ft | 372 kts | 154° |
| 2026-05-05 13:08 | 50.83974 | 7.49781 | 21134 ft | 367 kts | 154° |
| 2026-05-05 13:08 | 50.81724 | 7.51618 | 20664 ft | 362 kts | 154° |
| 2026-05-05 13:08 | 50.79490 | 7.53439 | 20159 ft | 358 kts | 154° |
| 2026-05-05 13:08 | 50.77284 | 7.55236 | 19677 ft | 355 kts | 154° |
| 2026-05-05 13:09 | 50.75102 | 7.57011 | 19201 ft | 352 kts | 154° |
| 2026-05-05 13:09 | 50.72931 | 7.58776 | 18722 ft | 349 kts | 154° |
| 2026-05-05 13:09 | 50.70780 | 7.60522 | 18258 ft | 347 kts | 154° |
| 2026-05-05 13:09 | 50.68642 | 7.62256 | 17753 ft | 344 kts | 154° |
| 2026-05-05 13:10 | 50.66510 | 7.63984 | 17333 ft | 353 kts | 154° |
| 2026-05-05 13:10 | 50.64265 | 7.65797 | 16898 ft | 367 kts | 154° |
| 2026-05-05 13:10 | 50.62032 | 7.67602 | 16462 ft | 363 kts | 154° |
| 2026-05-05 13:10 | 50.59805 | 7.69402 | 16016 ft | 356 kts | 154° |
| 2026-05-05 13:11 | 50.57605 | 7.71178 | 15597 ft | 355 kts | 154° |
| 2026-05-05 13:11 | 50.55405 | 7.72950 | 15191 ft | 355 kts | 154° |
| 2026-05-05 13:11 | 50.53222 | 7.74706 | 14795 ft | 351 kts | 154° |
| 2026-05-05 13:11 | 50.51053 | 7.76450 | 14394 ft | 349 kts | 154° |
| 2026-05-05 13:12 | 50.48894 | 7.78184 | 13995 ft | 347 kts | 154° |
| 2026-05-05 13:12 | 50.46746 | 7.79908 | 13592 ft | 346 kts | 154° |
| 2026-05-05 13:12 | 50.44616 | 7.81621 | 13174 ft | 344 kts | 153° |
| 2026-05-05 13:12 | 50.42595 | 7.83615 | 12786 ft | 343 kts | 144° |
| 2026-05-05 13:13 | 50.40731 | 7.85935 | 12462 ft | 341 kts | 142° |
| 2026-05-05 13:13 | 50.38879 | 7.88253 | 12137 ft | 340 kts | 142° |
| 2026-05-05 13:13 | 50.37030 | 7.90553 | 11810 ft | 339 kts | 143° |
| 2026-05-05 13:13 | 50.35194 | 7.92830 | 11615 ft | 331 kts | 143° |
| 2026-05-05 13:14 | 50.33423 | 7.95024 | 11487 ft | 318 kts | 143° |
| 2026-05-05 13:14 | 50.31718 | 7.97133 | 11370 ft | 305 kts | 143° |
| 2026-05-05 13:14 | 50.30103 | 7.99130 | 11179 ft | 295 kts | 143° |
| 2026-05-05 13:14 | 50.28499 | 8.01109 | 10771 ft | 293 kts | 143° |
| 2026-05-05 13:15 | 50.26911 | 8.03100 | 10358 ft | 292 kts | 139° |
| 2026-05-05 13:15 | 50.25518 | 8.05400 | 9964 ft | 292 kts | 129° |
| 2026-05-05 13:15 | 50.24305 | 8.07903 | 9744 ft | 284 kts | 128° |
| 2026-05-05 13:15 | 50.23109 | 8.10356 | 9675 ft | 286 kts | 129° |
| 2026-05-05 13:16 | 50.21895 | 8.12825 | 9599 ft | 286 kts | 129° |
| 2026-05-05 13:16 | 50.20686 | 8.15276 | 9522 ft | 285 kts | 129° |
| 2026-05-05 13:16 | 50.19478 | 8.17720 | 9442 ft | 284 kts | 129° |
| 2026-05-05 13:16 | 50.18272 | 8.20160 | 9378 ft | 284 kts | 129° |
| 2026-05-05 13:17 | 50.17064 | 8.22601 | 9312 ft | 284 kts | 129° |
| 2026-05-05 13:17 | 50.15859 | 8.25034 | 9235 ft | 283 kts | 129° |
| 2026-05-05 13:17 | 50.14653 | 8.27466 | 9163 ft | 283 kts | 129° |
| 2026-05-05 13:17 | 50.13462 | 8.29869 | 9093 ft | 282 kts | 129° |
| 2026-05-05 13:18 | 50.12260 | 8.32290 | 9018 ft | 282 kts | 129° |
| 2026-05-05 13:18 | 50.11063 | 8.34713 | 8947 ft | 282 kts | 126° |
| 2026-05-05 13:18 | 50.10281 | 8.37494 | 8879 ft | 285 kts | 101° |
| 2026-05-05 13:18 | 50.10362 | 8.40565 | 8800 ft | 288 kts | 75° |
| 2026-05-05 13:19 | 50.11033 | 8.43516 | 8722 ft | 288 kts | 70° |
| 2026-05-05 13:19 | 50.11758 | 8.46415 | 8627 ft | 288 kts | 70° |
| 2026-05-05 13:19 | 50.12486 | 8.49323 | 8556 ft | 288 kts | 70° |
| 2026-05-05 13:19 | 50.13202 | 8.52231 | 8481 ft | 287 kts | 70° |
| 2026-05-05 13:20 | 50.13908 | 8.55144 | 8405 ft | 287 kts | 71° |
| 2026-05-05 13:20 | 50.14604 | 8.58051 | 8330 ft | 286 kts | 71° |
| 2026-05-05 13:20 | 50.15298 | 8.60965 | 8254 ft | 286 kts | 71° |
| 2026-05-05 13:20 | 50.15987 | 8.63872 | 8183 ft | 286 kts | 71° |
| 2026-05-05 13:21 | 50.16678 | 8.66784 | 8111 ft | 286 kts | 71° |
| 2026-05-05 13:21 | 50.17367 | 8.69687 | 8031 ft | 286 kts | 71° |
| 2026-05-05 13:21 | 50.18055 | 8.72590 | 7951 ft | 285 kts | 71° |
| 2026-05-05 13:21 | 50.18742 | 8.75492 | 7878 ft | 285 kts | 71° |
| 2026-05-05 13:22 | 50.19428 | 8.78390 | 7807 ft | 285 kts | 71° |
| 2026-05-05 13:22 | 50.20113 | 8.81293 | 7735 ft | 284 kts | 71° |
| 2026-05-05 13:22 | 50.20785 | 8.84151 | 7659 ft | 284 kts | 71° |
| 2026-05-05 13:22 | 50.21464 | 8.87039 | 7583 ft | 283 kts | 71° |
| 2026-05-05 13:23 | 50.22145 | 8.89938 | 7511 ft | 283 kts | 71° |
| 2026-05-05 13:23 | 50.22822 | 8.92828 | 7432 ft | 283 kts | 71° |
| 2026-05-05 13:23 | 50.23498 | 8.95718 | 7359 ft | 283 kts | 71° |
| 2026-05-05 13:23 | 50.24173 | 8.98607 | 7291 ft | 282 kts | 71° |
| 2026-05-05 13:24 | 50.24845 | 9.01484 | 7209 ft | 283 kts | 71° |
| 2026-05-05 13:24 | 50.25518 | 9.04376 | 7137 ft | 282 kts | 71° |
| 2026-05-05 13:24 | 50.26188 | 9.07255 | 7062 ft | 282 kts | 71° |
| 2026-05-05 13:24 | 50.26858 | 9.10134 | 6993 ft | 281 kts | 71° |
| 2026-05-05 13:25 | 50.27526 | 9.13012 | 6916 ft | 282 kts | 71° |
| 2026-05-05 13:25 | 50.28194 | 9.15895 | 6842 ft | 281 kts | 71° |
| 2026-05-05 13:25 | 50.28858 | 9.18767 | 6776 ft | 281 kts | 71° |
| 2026-05-05 13:25 | 50.29522 | 9.21637 | 6702 ft | 281 kts | 71° |
| 2026-05-05 13:26 | 50.30188 | 9.24521 | 6627 ft | 281 kts | 71° |
| 2026-05-05 13:26 | 50.30842 | 9.27357 | 6553 ft | 280 kts | 71° |
| 2026-05-05 13:26 | 50.31506 | 9.30263 | 6479 ft | 280 kts | 71° |
| 2026-05-05 13:26 | 50.32146 | 9.33102 | 6416 ft | 280 kts | 71° |
| 2026-05-05 13:27 | 50.32792 | 9.35963 | 6339 ft | 279 kts | 72° |
| 2026-05-05 13:27 | 50.33438 | 9.38826 | 6275 ft | 278 kts | 72° |
| 2026-05-05 13:27 | 50.34079 | 9.41685 | 6195 ft | 279 kts | 72° |
| 2026-05-05 13:27 | 50.34722 | 9.44545 | 6115 ft | 278 kts | 72° |
| 2026-05-05 13:28 | 50.35366 | 9.47401 | 6039 ft | 277 kts | 72° |
| 2026-05-05 13:28 | 50.36003 | 9.50248 | 5959 ft | 278 kts | 72° |
| 2026-05-05 13:28 | 50.36640 | 9.53108 | 5897 ft | 277 kts | 72° |
| 2026-05-05 13:28 | 50.37159 | 9.55998 | 5790 ft | 275 kts | 85° |
| 2026-05-05 13:29 | 50.36947 | 9.58928 | 5660 ft | 271 kts | 112° |
| 2026-05-05 13:29 | 50.35908 | 9.61361 | 5542 ft | 271 kts | 139° |
| 2026-05-05 13:29 | 50.34276 | 9.62759 | 5409 ft | 269 kts | 167° |
| 2026-05-05 13:29 | 50.32437 | 9.62835 | 5321 ft | 264 kts | 193° |
| 2026-05-05 13:30 | 50.30815 | 9.61663 | 5244 ft | 253 kts | 218° |
| 2026-05-05 13:30 | 50.29709 | 9.59605 | 5089 ft | 245 kts | 243° |
| 2026-05-05 13:30 | 50.29106 | 9.57189 | 5019 ft | 233 kts | 249° |
| 2026-05-05 13:30 | 50.28556 | 9.54883 | 4998 ft | 219 kts | 249° |
| 2026-05-05 13:31 | 50.28203 | 9.53435 | 4999 ft | 209 kts | 249° |
| 2026-05-05 13:31 | 50.27513 | 9.50635 | 5013 ft | 229 kts | 248° |
| 2026-05-05 13:31 | 50.27108 | 9.48998 | 5002 ft | 245 kts | 248° |
| 2026-05-05 13:31 | 50.26280 | 9.45645 | 5000 ft | 257 kts | 248° |
| 2026-05-05 13:32 | 50.25625 | 9.42985 | 5001 ft | 268 kts | 248° |
| 2026-05-05 13:32 | 50.25172 | 9.41144 | 4999 ft | 269 kts | 248° |
| 2026-05-05 13:32 | 50.24524 | 9.38458 | 5000 ft | 268 kts | 249° |
| 2026-05-05 13:32 | 50.23894 | 9.35717 | 5003 ft | 268 kts | 250° |
| 2026-05-05 13:33 | 50.23272 | 9.32972 | 4996 ft | 268 kts | 250° |
| 2026-05-05 13:33 | 50.22648 | 9.30237 | 5000 ft | 267 kts | 249° |
| 2026-05-05 13:33 | 50.22022 | 9.27505 | 4997 ft | 267 kts | 249° |
| 2026-05-05 13:33 | 50.21382 | 9.24727 | 5002 ft | 277 kts | 249° |
| 2026-05-05 13:34 | 50.20724 | 9.21886 | 4999 ft | 278 kts | 249° |
| 2026-05-05 13:34 | 50.20067 | 9.19056 | 5002 ft | 277 kts | 249° |
| 2026-05-05 13:34 | 50.19410 | 9.16228 | 5002 ft | 278 kts | 249° |
| 2026-05-05 13:34 | 50.18755 | 9.13391 | 5000 ft | 277 kts | 250° |
| 2026-05-05 13:35 | 50.18164 | 9.10598 | 4997 ft | 263 kts | 250° |
| 2026-05-05 13:35 | 50.17594 | 9.07973 | 4996 ft | 247 kts | 249° |
| 2026-05-05 13:35 | 50.17024 | 9.05523 | 4995 ft | 232 kts | 248° |
| 2026-05-05 13:35 | 50.16481 | 9.03244 | 5000 ft | 217 kts | 248° |
| 2026-05-05 13:36 | 50.15953 | 9.01028 | 5005 ft | 222 kts | 248° |
| 2026-05-05 13:36 | 50.15427 | 8.98821 | 4995 ft | 210 kts | 248° |
| 2026-05-05 13:36 | 50.14938 | 8.96764 | 4996 ft | 195 kts | 248° |
| 2026-05-05 13:36 | 50.14472 | 8.94811 | 5007 ft | 200 kts | 248° |
| 2026-05-05 13:37 | 50.13991 | 8.92789 | 5002 ft | 197 kts | 248° |
| 2026-05-05 13:37 | 50.13513 | 8.90782 | 5004 ft | 198 kts | 248° |
| 2026-05-05 13:37 | 50.13032 | 8.88765 | 4985 ft | 199 kts | 248° |
| 2026-05-05 13:37 | 50.12551 | 8.86749 | 4822 ft | 199 kts | 248° |
| 2026-05-05 13:38 | 50.12071 | 8.84737 | 4556 ft | 198 kts | 248° |
| 2026-05-05 13:38 | 50.11593 | 8.82732 | 4285 ft | 197 kts | 248° |
| 2026-05-05 13:38 | 50.11114 | 8.80720 | 4026 ft | 199 kts | 248° |
| 2026-05-05 13:38 | 50.10622 | 8.78666 | 3778 ft | 206 kts | 249° |
| 2026-05-05 13:39 | 50.10114 | 8.76526 | 3495 ft | 216 kts | 249° |
| 2026-05-05 13:39 | 50.09575 | 8.74274 | 3223 ft | 225 kts | 249° |
| 2026-05-05 13:39 | 50.09036 | 8.72012 | 2906 ft | 220 kts | 249° |
| 2026-05-05 13:39 | 50.08522 | 8.69852 | 2599 ft | 204 kts | 249° |
| 2026-05-05 13:40 | 50.08044 | 8.67863 | 2346 ft | 189 kts | 249° |
| 2026-05-05 13:40 | 50.07605 | 8.66023 | 2083 ft | 175 kts | 249° |
| 2026-05-05 13:40 | 50.07198 | 8.64317 | 1857 ft | 161 kts | 249° |
| 2026-05-05 13:40 | 50.06822 | 8.62741 | 1653 ft | 150 kts | 249° |
| 2026-05-05 13:41 | 50.06474 | 8.61286 | 1465 ft | 140 kts | 249° |
| 2026-05-05 13:41 | 50.06132 | 8.59857 | 1287 ft | 144 kts | 249° |
| 2026-05-05 13:41 | 50.05786 | 8.58408 | 1078 ft | 141 kts | 249° |
| 2026-05-05 13:41 | 50.05450 | 8.57004 | 879 ft | 136 kts | 249° |
| 2026-05-05 13:42 | 50.05118 | 8.55611 | 726 ft | 140 kts | 247° |
| 2026-05-05 13:42 | 50.04780 | 8.54206 | 514 ft | 137 kts | 247° |
| 2026-05-05 13:42 | 50.04449 | 8.52819 | 364 ft | 135 kts | 248° |
| 2026-05-05 13:42 | 50.04203 | 8.51818 | 335 ft | 71 kts | 248° |
| 2026-05-05 13:43 | 50.03997 | 8.51418 | 332 ft | 42 kts | 214° |
| 2026-05-05 13:43 | 50.03918 | 8.51368 | 333 ft | 4 kts | 171° |
| 2026-05-05 13:43 | 50.03864 | 8.51443 | 332 ft | 17 kts | 122° |